Terminal Aerodrome Forecast
Issued by NWS

Home | Current Version | Previous Version | Graphics & Text | Print | Product List | Glossary On
Versions: 1 2 3 4 5 6 7 8 9 10 11 12 13 14 15 16
000
FTUS43 KICT 191700
TAFCNU
TAF
KCNU 191736Z 1918/2018 18016G24KT P6SM BKN250
     FM200100 16009KT P6SM BKN250
     FM201600 18015G22KT P6SM FEW060 BKN200=

USA.gov is the U.S. government's official web portal to all federal, state and local government web resources and services.